• Join FlightAware (Why Join?)
  • Login
  • US Flag 
02:36PM EDT


 

Airport Tracker/Info


-or-


 

Live Flight TrackerFlight Track Log ✈ N983CA ✈ 18-Apr-2013 ✈ KSFO - KGEG

Flight Track Log - Related Links

Times and Time Zones

All times are in EDT time to prevent confusion due to time zone crossing. See the N983CA flight status page for this flight to view local times or setup timezone preferences in your user account.

Time Position Orientation Groundspeed Altitude Reporting Facility
EDT Latitude Longitude Course Direction KTS MPH feet Rate Location/Type
12:28AM 37.6500 -122.3500 58° Northeast 162 186 1,300  Level Northern Cal TRACON
12:29AM 37.6647 -122.3203 58° Northeast 186 214 2,300 2,220 Climbing Oakland Center
12:30AM 37.7103 -122.2678 42° Northeast 213 245 5,300 2,940 Climbing Oakland Center
12:31AM 37.7881 -122.2519 North 246 283 8,300 2,640 Climbing Oakland Center
12:32AM 37.8639 -122.2483 North 261 300 10,700 2,400 Climbing Oakland Center
12:33AM 37.9400 -122.2478 360° North 274 315 13,200 1,800 Climbing Oakland Center
12:34AM 38.0219 -122.2436 North 298 343 14,400 1,500 Climbing Oakland Center
12:35AM 38.1092 -122.2258 North 320 368 16,300 1,620 Climbing Oakland Center
12:36AM 38.1975 -122.2056 10° North 325 374 17,800 1,320 Climbing Oakland Center
12:37AM 38.2878 -122.1861 10° North 330 380 19,000 1,260 Climbing Oakland Center
12:38AM 38.3806 -122.1656 10° North 339 390 20,400 1,260 Climbing Oakland Center
12:39AM 38.4761 -122.1456 North 347 399 21,600 1,320 Climbing Oakland Center
12:40AM 38.5928 -122.1203 10° North 355 409 23,100 1,260 Climbing Oakland Center
12:41AM 38.6889 -122.0997 North 352 405 24,200 960 Climbing Oakland Center
12:42AM 38.7772 -122.0806 10° North 360 414 25,100 900 Climbing Oakland Center
12:43AM 38.8769 -122.0594 North 362 417 26,100 780 Climbing Oakland Center
12:44AM 38.9778 -122.0378 North 365 420 26,800 780 Climbing Oakland Center
12:45AM 39.0797 -122.0147 10° North 368 423 27,700 840 Climbing Oakland Center
12:46AM 39.1822 -121.9908 10° North 371 427 28,600 720 Climbing Oakland Center
12:47AM 39.2847 -121.9692 North 373 429 29,200 540 Climbing Oakland Center
12:48AM 39.4097 -121.9397 10° North 379 436 29,800 540 Climbing Oakland Center
12:49AM 39.5175 -121.9153 10° North 385 443 30,300 480 Climbing Oakland Center
12:50AM 39.6231 -121.8897 11° North 386 444 30,800 540 Climbing Oakland Center
12:51AM 39.7286 -121.8661 10° North 387 445 31,400 540 Climbing Oakland Center
12:52AM 39.8333 -121.8425 10° North 385 443 32,000 240 Climbing Oakland Center
12:53AM 39.9367 -121.8192 10° North 380 437 32,000  Level Oakland Center
12:54AM 40.0417 -121.7950 10° North 384 442 32,000  Level Oakland Center
12:55AM 40.1456 -121.7714 10° North 383 441 32,000  Level Oakland Center
12:56AM 40.2481 -121.7475 10° North 379 436 32,000  Level Oakland Center
12:57AM 40.3506 -121.7253 North 375 432 32,000  Level Oakland Center
12:58AM 40.4714 -121.6961 10° North 372 428 32,000  Level Oakland Center
12:59AM 40.5722 -121.6736 10° North 370 426 32,000  Level Oakland Center
01:00AM 40.6717 -121.6458 12° North 369 425 32,000  Level Oakland Center
01:01AM 40.7703 -121.6086 16° North 369 425 32,000  Level Oakland Center
01:02AM 40.8661 -121.5583 22° Northeast 370 426 32,000  Level Oakland Center
01:03AM 40.9217 -121.5325 19° North 370 426 32,000  Level Seattle Center
01:04AM 41.0167 -121.4825 22° Northeast 368 423 32,000  Level Seattle Center
01:05AM 41.1125 -121.4311 22° Northeast 372 428 32,000  Level Seattle Center
01:05AM 41.1497 -121.4089 24° Northeast 371 427 32,000  Level Oakland Center
01:06AM 41.2269 -121.3703 21° North 370 426 32,000  Level Seattle Center
01:07AM 41.3233 -121.3186 22° Northeast 372 428 32,000  Level Seattle Center
01:08AM 41.4197 -121.2683 21° North 372 428 32,000  Level Seattle Center
01:10AM 41.5217 -121.2050 25° Northeast  Level FlightAware Approximate
01:11AM 41.7478 -121.0881 22° Northeast 377 434 32,000  Level Oakland Center
01:12AM 41.8050 -121.0586 21° North 374 430 32,000  Level Seattle Center
01:13AM 41.9019 -121.0056 22° Northeast 376 433 32,000  Level Seattle Center
01:14AM 41.9981 -120.9522 22° Northeast 376 433 32,000  Level Seattle Center
01:15AM 42.0953 -120.8978 23° Northeast 378 435 32,000  Level Seattle Center
01:16AM 42.1922 -120.8442 22° Northeast 379 436 32,000  Level Seattle Center
01:17AM 42.1833 -120.8392 22° Northeast  Level FlightAware Approximate
01:17AM 42.2869 -120.7914 22° Northeast 372 428 32,000  Level Seattle Center
01:18AM 42.3850 -120.7381 22° Northeast 379 436 32,000  Level Seattle Center
01:19AM 42.4814 -120.6825 23° Northeast 379 436 32,000  Level Seattle Center
01:20AM 42.5789 -120.6289 22° Northeast 380 437 32,000  Level Seattle Center
01:21AM 42.6769 -120.5744 22° Northeast 381 438 32,000  Level Seattle Center
01:22AM 42.7931 -120.5086 23° Northeast 379 436 32,000  Level Seattle Center
01:23AM 42.8911 -120.4533 22° Northeast 379 436 32,000  Level Seattle Center
01:24AM 42.9883 -120.3983 22° Northeast 380 437 32,000  Level Seattle Center
01:25AM 43.0858 -120.3422 23° Northeast 381 438 32,000  Level Seattle Center
01:26AM 43.1836 -120.2872 22° Northeast 380 437 32,000  Level Seattle Center
01:27AM 43.2808 -120.2311 23° Northeast 380 437 32,000  Level Seattle Center
01:28AM 43.3794 -120.1767 22° Northeast 382 440 32,000  Level Seattle Center
01:29AM 43.4775 -120.1192 23° Northeast 383 441 32,000  Level Seattle Center
01:30AM 43.5778 -120.0603 23° Northeast 381 438 32,000  Level Seattle Center
01:31AM 43.6664 -120.0106 22° Northeast 382 440 32,000  Level Seattle Center
01:32AM 43.7650 -119.9519 23° Northeast 385 443 32,000  Level Seattle Center
01:33AM 43.8625 -119.8961 22° Northeast 383 441 32,000  Level Seattle Center
01:34AM 43.9606 -119.8375 23° Northeast 385 443 32,000  Level Seattle Center
01:35AM 44.0594 -119.7806 22° Northeast 385 443 32,000  Level Seattle Center
01:36AM 44.1769 -119.7117 23° Northeast 385 443 32,000  Level Seattle Center
01:37AM 44.2761 -119.6536 23° Northeast 387 445 32,000  Level Seattle Center
01:38AM 44.3742 -119.5944 23° Northeast 387 445 32,000  Level Seattle Center
01:39AM 44.4739 -119.5350 23° Northeast 390 449 32,000  Level Seattle Center
01:40AM 44.5731 -119.4758 23° Northeast 391 450 32,000  Level Seattle Center
01:41AM 44.6725 -119.4164 23° Northeast 391 450 32,000  Level Seattle Center
01:42AM 44.7714 -119.3550 24° Northeast 392 451 32,000  Level Seattle Center
01:43AM 44.8703 -119.2969 23° Northeast 390 449 32,000  Level Seattle Center
01:44AM 44.9703 -119.2347 24° Northeast 395 455 32,000  Level Seattle Center
01:45AM 45.0708 -119.1756 23° Northeast 395 455 32,000  Level Seattle Center
01:46AM 45.1714 -119.1144 23° Northeast 395 455 32,000  Level Seattle Center
01:47AM 45.2711 -119.0533 23° Northeast 394 453 32,000  Level Seattle Center
01:48AM 45.3728 -118.9914 23° Northeast 399 459 32,000  Level Seattle Center
01:49AM 45.4733 -118.9286 24° Northeast 396 456 32,000  Level Seattle Center
01:50AM 45.5722 -118.8644 24° Northeast 393 452 32,000  Level Seattle Center
01:51AM 45.6733 -118.8011 24° Northeast 396 456 32,000  Level Seattle Center
01:52AM 45.7958 -118.7261 23° Northeast 400 460 32,000  Level Seattle Center
01:53AM 45.8978 -118.6619 24° Northeast 401 461 32,000  Level Seattle Center
01:54AM 46.0025 -118.5947 24° Northeast 407 468 32,000  Level Seattle Center
01:55AM 46.1067 -118.5275 24° Northeast 410 472 32,000  Level Seattle Center
01:56AM 46.2028 -118.4664 24° Northeast 417 480 32,000 -660 Level Seattle Center
01:58AM 46.3081 -118.3992 24° Northeast 419 482 30,700 -1,800 Descending Seattle Center
01:59AM 46.4186 -118.3286 24° Northeast 434 499 28,400 -2,340 Descending Seattle Center
02:00AM 46.5242 -118.2597 24° Northeast 418 481 26,100 -2,340 Descending Seattle Center
02:01AM 46.6281 -118.1925 24° Northeast 409 471 23,800 -2,340 Descending Seattle Center
02:02AM 46.7283 -118.1278 24° Northeast 400 460 21,500 -2,220 Descending Seattle Center
02:03AM 46.8253 -118.0619 25° Northeast 385 443 19,400 -1,980 Descending Seattle Center
02:04AM 46.9222 -118.0014 23° Northeast 383 441 17,600 -1,920 Descending Seattle Center
02:05AM 47.0100 -117.9431 24° Northeast 341 392 15,600 -2,040 Descending Seattle Center
02:06AM 47.0944 -117.8869 24° Northeast 325 374 13,500 -2,040 Descending Seattle Center
02:07AM 47.1719 -117.8233 29° Northeast 322 371 11,500 -1,980 Descending Seattle Center
02:08AM 47.2422 -117.7539 34° Northeast 304 350 9,600 -1,740 Descending Seattle Center
02:09AM 47.3094 -117.6928 32° Northeast 275 316 8,100 -1,560 Descending Seattle Center
02:10AM 47.3744 -117.6381 30° Northeast 276 318 6,500 -1,140 Descending Seattle Center
02:11AM 47.4544 -117.5678 31° Northeast 277 319 5,900 -480 Descending Seattle Center
02:12AM 47.5042 -117.5050 40° Northeast 237 273 5,600 -600 Descending Seattle Center
02:13AM 47.5525 -117.4431 41° Northeast 229 264 4,800 -600 Descending Seattle Center
02:14AM 47.5986 -117.3892 38° Northeast 216 249 4,400 -360 Descending Seattle Center
02:15AM 47.6533 -117.4025 351° North 199 229 4,100 -480 Descending Seattle Center
02:16AM 47.6678 -117.4600 290° West 156 180 3,500 -660 Descending Seattle Center
02:17AM 47.6458 -117.4972 229° Southwest 122 140 2,800 -600 Descending Seattle Center
02:18AM 47.6211 -117.5333 225° Southwest 125 144 2,300 -300 Descending Seattle Center
02:19AM 47.6189 -117.5417 248° West 58 67 2,300  Level Seattle Center